Time;durP1;ratioP1;P1;durP2;ratioP2;P2;SDS_P1;SDS_P2;PMS_P1;PMS_P2;Temp;Humidity;BMP_temperature;BMP_pressure;BME280_temperature;BME280_humidity;BME280_pressure;Samples;Min_cycle;Max_cycle;Signal;HPM_P1;HPM_P2
2024/01/17 00:01:59;;;;;;;9.57;5.50;;;;;;;;;;5007328;28;20037;-78
2024/01/17 00:04:27;;;;;;;9.98;6.30;;;;;;;;;;5026185;28;20033;-78
2024/01/17 00:06:53;;;;;;;8.40;6.35;;;;;;;;;;5013804;28;20411;-77
2024/01/17 00:09:19;;;;;;;8.30;6.00;;;;;;;;;;5029075;28;20038;-78
2024/01/17 00:11:45;;;;;;;9.02;6.68;;;;;;;;;;5027037;28;20480;-78
2024/01/17 00:14:12;;;;;;;8.45;6.40;;;;;;;;;;5026334;28;20060;-78
2024/01/17 00:16:38;;;;;;;13.30;7.75;;;;;;;;;;5011516;28;20047;-78
2024/01/17 00:19:04;;;;;;;8.63;6.10;;;;;;;;;;5032649;28;20053;-78
2024/01/17 00:21:30;;;;;;;10.15;6.47;;;;;;;;;;5032183;28;20052;-78
2024/01/17 00:23:56;;;;;;;11.68;6.57;;;;;;;;;;5027392;28;20531;-78
2024/01/17 00:26:22;;;;;;;11.10;7.47;;;;;;;;;;5020305;28;20041;-78
2024/01/17 00:28:48;;;;;;;10.98;7.20;;;;;;;;;;5027194;28;20046;-78
2024/01/17 00:31:14;;;;;;;10.93;7.50;;;;;;;;;;5028185;28;21678;-78
2024/01/17 00:33:41;;;;;;;10.35;7.30;;;;;;;;;;5007864;28;20120;-78
2024/01/17 00:36:08;;;;;;;9.38;7.40;;;;;;;;;;5026929;28;20041;-78
2024/01/17 00:38:34;;;;;;;8.57;7.32;;;;;;;;;;5028460;28;20056;-78
2024/01/17 00:41:00;;;;;;;10.30;7.13;;;;;;;;;;5027237;28;20037;-79
2024/01/17 00:43:26;;;;;;;9.98;6.82;;;;;;;;;;5028057;28;20120;-79
2024/01/17 00:45:52;;;;;;;11.07;7.28;;;;;;;;;;5029659;28;20052;-78
2024/01/17 00:48:18;;;;;;;10.50;7.53;;;;;;;;;;5022458;28;20054;-78
2024/01/17 00:50:44;;;;;;;9.45;6.68;;;;;;;;;;5028589;28;20370;-78
2024/01/17 00:53:10;;;;;;;11.23;7.75;;;;;;;;;;5008729;28;20037;-78
2024/01/17 00:55:36;;;;;;;10.05;7.72;;;;;;;;;;5026869;28;20452;-78
2024/01/17 00:58:03;;;;;;;10.05;7.28;;;;;;;;;;5031238;28;20128;-78
2024/01/17 01:00:29;;;;;;;11.02;7.38;;;;;;;;;;5027761;28;20124;-78
2024/01/17 01:02:55;;;;;;;12.00;7.78;;;;;;;;;;5031180;28;20041;-78
2024/01/17 01:05:21;;;;;;;9.68;7.00;;;;;;;;;;5027674;28;20049;-78
2024/01/17 01:07:51;;;;;;;11.70;6.50;;;;;;;;;;5027961;28;20095;-78
2024/01/17 01:10:17;;;;;;;13.32;7.68;;;;;;;;;;5024226;28;20095;-78
2024/01/17 01:12:43;;;;;;;8.75;7.70;;;;;;;;;;5009223;28;20053;-78
2024/01/17 01:15:09;;;;;;;14.68;8.38;;;;;;;;;;5026043;28;20080;-78
2024/01/17 01:17:35;;;;;;;12.00;8.10;;;;;;;;;;5019768;28;20124;-78
2024/01/17 01:20:02;;;;;;;11.18;7.70;;;;;;;;;;5027311;28;20456;-78
2024/01/17 01:22:28;;;;;;;12.95;7.35;;;;;;;;;;5026265;28;20052;-78
2024/01/17 01:24:54;;;;;;;16.25;8.00;;;;;;;;;;5025800;28;20038;-78
2024/01/17 01:27:20;;;;;;;13.65;8.00;;;;;;;;;;5029727;28;20041;-78
2024/01/17 01:29:46;;;;;;;13.02;7.05;;;;;;;;;;5030967;28;20041;-78
2024/01/17 01:32:12;;;;;;;11.25;7.30;;;;;;;;;;5011728;28;20045;-78
2024/01/17 01:34:38;;;;;;;11.50;8.63;;;;;;;;;;5029107;28;20573;-78
2024/01/17 01:37:04;;;;;;;10.63;7.65;;;;;;;;;;5029072;28;20049;-78
2024/01/17 01:39:30;;;;;;;11.90;7.93;;;;;;;;;;5030294;28;20083;-78
2024/01/17 01:41:56;;;;;;;12.90;7.15;;;;;;;;;;5012075;28;20053;-78
2024/01/17 01:44:22;;;;;;;11.43;7.30;;;;;;;;;;5028865;28;21088;-78
2024/01/17 01:46:50;;;;;;;11.57;6.97;;;;;;;;;;5028816;28;20084;-78
2024/01/17 01:49:16;;;;;;;10.85;7.97;;;;;;;;;;5033712;28;20415;-78
2024/01/17 01:51:44;;;;;;;11.07;7.68;;;;;;;;;;5034720;28;20038;-78
2024/01/17 01:54:11;;;;;;;13.50;7.88;;;;;;;;;;5009653;28;20045;-78
2024/01/17 01:56:38;;;;;;;12.43;8.48;;;;;;;;;;5033603;28;20530;-78
2024/01/17 01:59:04;;;;;;;14.00;8.32;;;;;;;;;;5034991;28;20064;-78
2024/01/17 02:01:30;;;;;;;13.95;7.82;;;;;;;;;;5029549;28;20069;-78
2024/01/17 02:03:57;;;;;;;11.50;7.65;;;;;;;;;;5024204;28;20088;-78
2024/01/17 02:06:23;;;;;;;10.77;7.30;;;;;;;;;;5029489;28;20041;-78
2024/01/17 02:08:50;;;;;;;11.93;7.90;;;;;;;;;;5026166;28;20531;-78
2024/01/17 02:11:17;;;;;;;13.18;9.45;;;;;;;;;;5029415;28;20061;-78
2024/01/17 02:13:44;;;;;;;11.27;8.18;;;;;;;;;;5029501;28;20060;-78
2024/01/17 02:16:10;;;;;;;12.50;8.55;;;;;;;;;;5029929;28;20045;-78
2024/01/17 02:18:36;;;;;;;12.57;7.93;;;;;;;;;;5028474;28;20038;-78
2024/01/17 02:21:03;;;;;;;11.10;9.05;;;;;;;;;;5010297;28;20083;-78
2024/01/17 02:23:29;;;;;;;11.93;8.40;;;;;;;;;;5028587;28;20132;-78
2024/01/17 02:25:56;;;;;;;9.32;7.65;;;;;;;;;;5027632;28;20357;-78
2024/01/17 02:28:22;;;;;;;9.85;7.85;;;;;;;;;;5033611;28;20547;-78
2024/01/17 02:30:48;;;;;;;13.27;8.45;;;;;;;;;;5029470;28;20041;-78
2024/01/17 02:33:15;;;;;;;14.02;9.07;;;;;;;;;;5028309;28;20045;-78
2024/01/17 02:35:41;;;;;;;14.35;8.65;;;;;;;;;;5028604;28;20716;-78
2024/01/17 02:38:07;;;;;;;12.10;8.63;;;;;;;;;;5028527;28;20057;-78
2024/01/17 02:40:33;;;;;;;13.63;9.30;;;;;;;;;;5027398;28;20451;-78
2024/01/17 02:42:59;;;;;;;12.43;8.95;;;;;;;;;;5028060;28;20045;-78
2024/01/17 02:45:25;;;;;;;13.90;8.73;;;;;;;;;;5027364;28;20077;-78
2024/01/17 02:47:51;;;;;;;15.55;9.20;;;;;;;;;;5028306;28;20037;-78
2024/01/17 02:50:17;;;;;;;12.95;8.95;;;;;;;;;;5029498;28;20047;-78
2024/01/17 02:52:47;;;;;;;13.63;9.20;;;;;;;;;;5032980;28;20099;-78
2024/01/17 02:55:13;;;;;;;12.38;9.23;;;;;;;;;;5033568;28;20474;-78
2024/01/17 02:57:39;;;;;;;11.27;8.75;;;;;;;;;;5034204;28;20496;-78
2024/01/17 03:00:06;;;;;;;15.07;9.90;;;;;;;;;;5031521;28;20049;-77
2024/01/17 03:02:32;;;;;;;11.52;9.25;;;;;;;;;;5030899;28;20041;-78
2024/01/17 03:04:58;;;;;;;14.32;9.50;;;;;;;;;;5031229;28;20076;-78
2024/01/17 03:07:24;;;;;;;13.43;10.35;;;;;;;;;;5033809;28;20124;-78
2024/01/17 03:09:50;;;;;;;15.00;9.77;;;;;;;;;;5032304;28;20068;-78
2024/01/17 03:12:17;;;;;;;11.98;9.05;;;;;;;;;;5028387;28;20076;-78
2024/01/17 03:14:43;;;;;;;13.63;9.85;;;;;;;;;;5029859;28;20576;-78
2024/01/17 03:17:09;;;;;;;14.02;9.85;;;;;;;;;;5025719;28;20125;-78
2024/01/17 03:19:35;;;;;;;15.43;9.07;;;;;;;;;;5026036;28;20132;-78
2024/01/17 03:22:01;;;;;;;15.10;11.07;;;;;;;;;;5026434;28;20041;-78
2024/01/17 03:24:27;;;;;;;16.17;10.43;;;;;;;;;;5027398;28;20128;-78
2024/01/17 03:26:53;;;;;;;17.45;11.45;;;;;;;;;;5026744;28;20045;-78
2024/01/17 03:29:19;;;;;;;15.23;10.70;;;;;;;;;;5026464;28;20042;-78
2024/01/17 03:31:47;;;;;;;14.60;12.00;;;;;;;;;;5027549;28;20525;-78
2024/01/17 03:34:13;;;;;;;17.02;11.05;;;;;;;;;;5026196;28;20143;-78
2024/01/17 03:36:39;;;;;;;14.65;11.00;;;;;;;;;;5028252;28;20041;-78
2024/01/17 03:39:05;;;;;;;18.50;11.65;;;;;;;;;;5025708;28;20038;-78
2024/01/17 03:41:32;;;;;;;14.20;9.85;;;;;;;;;;5027064;28;20357;-78
2024/01/17 03:43:58;;;;;;;15.43;11.82;;;;;;;;;;5009847;28;20038;-78
2024/01/17 03:46:24;;;;;;;18.25;13.25;;;;;;;;;;5026074;28;20128;-78
2024/01/17 03:48:51;;;;;;;17.05;12.02;;;;;;;;;;5026544;28;20061;-81
2024/01/17 03:51:17;;;;;;;18.20;11.63;;;;;;;;;;4992397;28;20075;-78
2024/01/17 03:53:43;;;;;;;17.55;11.77;;;;;;;;;;5028191;28;20057;-78
2024/01/17 03:56:09;;;;;;;15.50;10.88;;;;;;;;;;5030852;28;20373;-78
2024/01/17 03:58:35;;;;;;;16.15;11.45;;;;;;;;;;4986638;28;20068;-78
2024/01/17 04:01:01;;;;;;;18.45;11.95;;;;;;;;;;5023979;28;20048;-78
2024/01/17 04:03:27;;;;;;;17.48;12.85;;;;;;;;;;5027603;28;20076;-78
2024/01/17 04:05:53;;;;;;;17.00;11.65;;;;;;;;;;5027096;28;20119;-78
2024/01/17 04:08:19;;;;;;;15.32;11.45;;;;;;;;;;5027245;28;20515;-78
2024/01/17 04:10:45;;;;;;;17.15;12.38;;;;;;;;;;5026303;28;20052;-78
2024/01/17 04:13:11;;;;;;;18.10;11.63;;;;;;;;;;5027293;28;20056;-78
2024/01/17 04:15:37;;;;;;;17.83;12.73;;;;;;;;;;5026788;28;20128;-78
2024/01/17 04:18:04;;;;;;;18.35;13.02;;;;;;;;;;5027067;28;20693;-78
2024/01/17 04:20:30;;;;;;;16.75;12.52;;;;;;;;;;5027122;28;20045;-78
2024/01/17 04:22:56;;;;;;;17.45;12.02;;;;;;;;;;5026689;28;20056;-78
2024/01/17 04:25:23;;;;;;;19.33;12.85;;;;;;;;;;5026910;28;20045;-78
2024/01/17 04:27:49;;;;;;;19.67;12.55;;;;;;;;;;5026940;28;20049;-78
2024/01/17 04:30:15;;;;;;;18.77;12.38;;;;;;;;;;5025975;28;20080;-78
2024/01/17 04:32:41;;;;;;;17.88;12.10;;;;;;;;;;5027376;28;20045;-78
2024/01/17 04:35:07;;;;;;;17.88;13.70;;;;;;;;;;5027821;28;20037;-78
2024/01/17 04:37:33;;;;;;;22.40;12.68;;;;;;;;;;5026836;28;20041;-78
2024/01/17 04:39:59;;;;;;;21.23;13.10;;;;;;;;;;5025506;28;20131;-78
2024/01/17 04:42:25;;;;;;;19.95;14.43;;;;;;;;;;5026616;28;20038;-78
2024/01/17 04:44:51;;;;;;;20.77;13.25;;;;;;;;;;5027138;28;20037;-78
2024/01/17 04:47:18;;;;;;;17.80;12.25;;;;;;;;;;5029077;28;20041;-78
2024/01/17 04:49:46;;;;;;;19.23;13.55;;;;;;;;;;5028489;28;20042;-78
2024/01/17 04:52:16;;;;;;;17.17;12.68;;;;;;;;;;5009058;28;20057;-78
2024/01/17 04:54:42;;;;;;;18.65;13.20;;;;;;;;;;5022406;28;20049;-78
2024/01/17 04:57:08;;;;;;;15.80;12.88;;;;;;;;;;5027128;28;20072;-78
2024/01/17 04:59:34;;;;;;;18.10;12.93;;;;;;;;;;5025550;28;20044;-78
2024/01/17 05:02:00;;;;;;;17.27;11.73;;;;;;;;;;5030225;28;20037;-78
2024/01/17 05:04:26;;;;;;;16.52;12.23;;;;;;;;;;5013649;28;20085;-78
2024/01/17 05:06:52;;;;;;;20.15;13.55;;;;;;;;;;5034855;28;20095;-78
2024/01/17 05:09:18;;;;;;;18.45;12.35;;;;;;;;;;5028819;28;20107;-78
2024/01/17 05:11:45;;;;;;;21.35;14.00;;;;;;;;;;5030514;28;20092;-78
2024/01/17 05:14:14;;;;;;;23.50;13.55;;;;;;;;;;5032408;28;20069;-78
2024/01/17 05:16:40;;;;;;;17.92;12.55;;;;;;;;;;5026819;28;20053;-78
2024/01/17 05:19:06;;;;;;;19.00;13.68;;;;;;;;;;5030455;28;20072;-78
2024/01/17 05:21:32;;;;;;;18.15;13.52;;;;;;;;;;5029368;28;20531;-78
2024/01/17 05:23:58;;;;;;;19.58;14.30;;;;;;;;;;5030048;28;20065;-78
2024/01/17 05:26:24;;;;;;;18.33;13.65;;;;;;;;;;5030144;28;20045;-78
2024/01/17 05:28:50;;;;;;;16.60;13.50;;;;;;;;;;5029804;28;20138;-78
2024/01/17 05:31:16;;;;;;;20.40;12.88;;;;;;;;;;5031042;28;20120;-78
2024/01/17 05:33:43;;;;;;;20.27;12.60;;;;;;;;;;5030389;28;20069;-78
2024/01/17 05:36:09;;;;;;;20.98;13.27;;;;;;;;;;5030637;28;21678;-78
2024/01/17 05:38:35;;;;;;;18.58;13.00;;;;;;;;;;5028532;28;20484;-78
2024/01/17 05:41:01;;;;;;;22.45;13.30;;;;;;;;;;5030649;28;20069;-78
2024/01/17 05:43:27;;;;;;;19.38;12.73;;;;;;;;;;5029381;28;20056;-78
2024/01/17 05:45:57;;;;;;;16.65;12.38;;;;;;;;;;5031275;28;20131;-78
2024/01/17 05:48:23;;;;;;;18.52;12.18;;;;;;;;;;5030309;28;20079;-78
2024/01/17 05:50:49;;;;;;;21.85;13.57;;;;;;;;;;5027663;28;20125;-78
2024/01/17 05:53:16;;;;;;;20.70;13.63;;;;;;;;;;5029175;28;20473;-78
2024/01/17 05:55:42;;;;;;;20.58;12.88;;;;;;;;;;5030659;28;20041;-78
2024/01/17 05:58:11;;;;;;;17.30;13.30;;;;;;;;;;5028679;28;20091;-78
2024/01/17 06:00:39;;;;;;;18.75;13.52;;;;;;;;;;5029715;28;20037;-78
2024/01/17 06:03:05;;;;;;;20.55;13.95;;;;;;;;;;5012523;28;20408;-78
2024/01/17 06:05:31;;;;;;;17.50;12.93;;;;;;;;;;5031347;28;20079;-78
2024/01/17 06:07:57;;;;;;;23.75;13.88;;;;;;;;;;5022964;28;20444;-77
2024/01/17 06:10:25;;;;;;;19.73;14.02;;;;;;;;;;5032312;28;20048;-78
2024/01/17 06:12:51;;;;;;;18.20;13.10;;;;;;;;;;5011242;28;20053;-78
2024/01/17 06:15:17;;;;;;;18.80;13.40;;;;;;;;;;5030060;28;20132;-78
2024/01/17 06:17:44;;;;;;;18.45;12.77;;;;;;;;;;5029423;28;20076;-78
2024/01/17 06:20:11;;;;;;;17.85;12.85;;;;;;;;;;5027752;28;20037;-78
2024/01/17 06:22:37;;;;;;;17.58;12.23;;;;;;;;;;5028673;28;20049;-78
2024/01/17 06:25:05;;;;;;;21.52;12.57;;;;;;;;;;4996503;28;20053;-78
2024/01/17 06:27:31;;;;;;;16.52;13.10;;;;;;;;;;5031847;28;20049;-78
2024/01/17 06:29:57;;;;;;;21.25;13.43;;;;;;;;;;5028510;28;20455;-78
2024/01/17 06:32:23;;;;;;;19.17;13.05;;;;;;;;;;5028094;28;20038;-78
2024/01/17 06:34:49;;;;;;;18.70;12.88;;;;;;;;;;5027457;28;20045;-78
2024/01/17 06:37:15;;;;;;;17.98;12.70;;;;;;;;;;5029842;28;20034;-78
2024/01/17 06:39:42;;;;;;;19.95;12.90;;;;;;;;;;5029042;28;20077;-79
2024/01/17 06:42:09;;;;;;;20.95;14.68;;;;;;;;;;5031077;28;20049;-78
2024/01/17 06:44:35;;;;;;;19.95;13.38;;;;;;;;;;5011589;28;20531;-79
2024/01/17 06:47:03;;;;;;;19.77;14.02;;;;;;;;;;5029764;28;20044;-78
2024/01/17 06:49:29;;;;;;;21.17;13.45;;;;;;;;;;5029011;28;20416;-80
2024/01/17 06:51:56;;;;;;;21.10;12.85;;;;;;;;;;5033774;28;22089;-79
2024/01/17 06:54:22;;;;;;;22.08;14.50;;;;;;;;;;5037698;28;20128;-78
2024/01/17 06:56:48;;;;;;;17.48;12.35;;;;;;;;;;5033563;28;20501;-81
2024/01/17 06:59:15;;;;;;;18.10;12.02;;;;;;;;;;5032618;28;20144;-78
2024/01/17 07:01:41;;;;;;;19.73;14.23;;;;;;;;;;5030449;28;20069;-79
2024/01/17 07:04:07;;;;;;;19.20;12.43;;;;;;;;;;5014148;28;20048;-79
2024/01/17 07:06:33;;;;;;;21.73;13.48;;;;;;;;;;5026562;28;20037;-78
2024/01/17 07:08:59;;;;;;;19.58;12.93;;;;;;;;;;5024376;28;20045;-79
2024/01/17 07:11:25;;;;;;;20.58;13.73;;;;;;;;;;5030231;28;20507;-79
2024/01/17 07:13:52;;;;;;;18.58;12.85;;;;;;;;;;5030470;28;20053;-79
2024/01/17 07:16:18;;;;;;;19.95;14.65;;;;;;;;;;5032249;28;20053;-79
2024/01/17 07:18:44;;;;;;;17.52;13.95;;;;;;;;;;5029667;28;20043;-78
2024/01/17 07:21:10;;;;;;;20.15;13.00;;;;;;;;;;5030368;28;20072;-79
2024/01/17 07:23:38;;;;;;;19.30;13.00;;;;;;;;;;5030214;28;20079;-79
2024/01/17 07:26:04;;;;;;;21.23;15.02;;;;;;;;;;5013808;28;20048;-78
2024/01/17 07:28:30;;;;;;;21.00;13.85;;;;;;;;;;5034303;28;20495;-78
2024/01/17 07:30:56;;;;;;;21.45;15.20;;;;;;;;;;5031211;28;20073;-79
2024/01/17 07:33:22;;;;;;;21.60;13.68;;;;;;;;;;5031341;28;20129;-79
2024/01/17 07:35:48;;;;;;;20.80;13.45;;;;;;;;;;5036793;28;20093;-79
2024/01/17 07:38:14;;;;;;;22.20;14.70;;;;;;;;;;5037775;28;20120;-79
2024/01/17 07:40:41;;;;;;;20.70;13.68;;;;;;;;;;5020317;28;20073;-79
2024/01/17 07:43:07;;;;;;;20.65;12.90;;;;;;;;;;5036346;28;20052;-78
2024/01/17 07:45:33;;;;;;;18.77;12.27;;;;;;;;;;5033915;28;20084;-79
2024/01/17 07:47:59;;;;;;;22.30;14.20;;;;;;;;;;5010484;28;20057;-79
2024/01/17 07:50:26;;;;;;;22.30;14.25;;;;;;;;;;5032077;28;20124;-79
2024/01/17 07:52:52;;;;;;;22.08;13.65;;;;;;;;;;5031147;28;20045;-79
2024/01/17 07:55:18;;;;;;;20.55;13.98;;;;;;;;;;5030024;28;20100;-79
2024/01/17 07:57:44;;;;;;;20.50;14.10;;;;;;;;;;5028346;28;20489;-79
2024/01/17 08:00:14;;;;;;;19.40;13.77;;;;;;;;;;5004079;28;20042;-79
2024/01/17 08:02:40;;;;;;;20.15;12.27;;;;;;;;;;5038499;28;20068;-79
2024/01/17 08:05:07;;;;;;;20.58;14.10;;;;;;;;;;5038327;28;20041;-78
2024/01/17 08:07:33;;;;;;;22.35;15.07;;;;;;;;;;5037435;28;20100;-79
2024/01/17 08:09:59;;;;;;;21.50;14.40;;;;;;;;;;5036004;28;20095;-79
2024/01/17 08:12:25;;;;;;;21.27;14.68;;;;;;;;;;5035341;28;20539;-79
2024/01/17 08:14:51;;;;;;;20.73;13.45;;;;;;;;;;5034656;28;20515;-79
2024/01/17 08:17:17;;;;;;;19.83;13.23;;;;;;;;;;5035730;28;20045;-79
2024/01/17 08:19:43;;;;;;;19.65;13.68;;;;;;;;;;5037510;28;20056;-79
2024/01/17 08:22:12;;;;;;;19.90;12.90;;;;;;;;;;5019038;28;20097;-79
2024/01/17 08:24:38;;;;;;;17.05;12.48;;;;;;;;;;5018227;28;20558;-79
2024/01/17 08:27:04;;;;;;;16.38;11.95;;;;;;;;;;5034581;28;20041;-79
2024/01/17 08:29:31;;;;;;;20.50;13.48;;;;;;;;;;5036309;28;20050;-78
2024/01/17 08:31:57;;;;;;;20.17;13.60;;;;;;;;;;5031062;28;20099;-78
2024/01/17 08:34:23;;;;;;;19.67;13.32;;;;;;;;;;5027977;28;20048;-78
2024/01/17 08:36:49;;;;;;;21.00;13.23;;;;;;;;;;5000651;28;20137;-79
2024/01/17 08:39:16;;;;;;;17.88;14.18;;;;;;;;;;5032957;28;20041;-82
2024/01/17 08:41:45;;;;;;;20.25;13.45;;;;;;;;;;5034928;28;20045;-79
2024/01/17 08:44:12;;;;;;;20.55;12.75;;;;;;;;;;5035427;28;20520;-78
2024/01/17 08:46:42;;;;;;;15.85;12.00;;;;;;;;;;5029842;28;20037;-79
2024/01/17 08:49:09;;;;;;;16.45;12.18;;;;;;;;;;5020696;28;20057;-78
2024/01/17 08:51:35;;;;;;;18.52;13.77;;;;;;;;;;5034208;28;20045;-78
2024/01/17 08:54:01;;;;;;;22.63;12.68;;;;;;;;;;5033346;28;20124;-79
2024/01/17 08:56:27;;;;;;;20.15;13.20;;;;;;;;;;5031181;28;20069;-79
2024/01/17 08:58:53;;;;;;;21.50;12.85;;;;;;;;;;5034711;28;20488;-78
2024/01/17 09:01:19;;;;;;;18.17;12.32;;;;;;;;;;5034555;28;20551;-79
2024/01/17 09:03:46;;;;;;;19.75;12.50;;;;;;;;;;5033252;28;20497;-79
2024/01/17 09:06:12;;;;;;;20.75;12.70;;;;;;;;;;5007607;28;20519;-79
2024/01/17 09:08:38;;;;;;;21.08;13.27;;;;;;;;;;5031710;28;20398;-78
2024/01/17 09:11:05;;;;;;;37.47;20.52;;;;;;;;;;5031070;28;20085;-78
2024/01/17 09:13:32;;;;;;;55.13;27.67;;;;;;;;;;5027095;28;20046;-78
2024/01/17 09:15:58;;;;;;;28.10;15.25;;;;;;;;;;5028148;28;20077;-79
2024/01/17 09:18:24;;;;;;;33.10;17.45;;;;;;;;;;5024436;28;20073;-79
2024/01/17 09:20:50;;;;;;;45.13;23.35;;;;;;;;;;5028559;28;20057;-78
2024/01/17 09:23:16;;;;;;;20.85;12.98;;;;;;;;;;5036015;28;20041;-79
2024/01/17 09:25:42;;;;;;;18.83;11.60;;;;;;;;;;5036894;28;20454;-78
2024/01/17 09:28:09;;;;;;;14.55;11.88;;;;;;;;;;5035377;28;20069;-78
2024/01/17 09:30:35;;;;;;;18.40;12.50;;;;;;;;;;5036107;28;20049;-78
2024/01/17 09:33:01;;;;;;;16.23;12.27;;;;;;;;;;5035117;28;20060;-78
2024/01/17 09:35:27;;;;;;;18.05;12.63;;;;;;;;;;5035919;28;20097;-79
2024/01/17 09:37:53;;;;;;;15.93;11.63;;;;;;;;;;5020936;28;20442;-79
2024/01/17 09:40:21;;;;;;;19.52;12.32;;;;;;;;;;5019682;28;20050;-79
2024/01/17 09:42:47;;;;;;;14.15;11.05;;;;;;;;;;5020151;28;20061;-81
2024/01/17 09:45:14;;;;;;;16.27;11.80;;;;;;;;;;4998160;28;20524;-78
2024/01/17 09:47:41;;;;;;;15.52;11.38;;;;;;;;;;5014306;28;20048;-78
2024/01/17 09:50:07;;;;;;;20.42;11.52;;;;;;;;;;5031042;28;20049;-80
2024/01/17 09:52:33;;;;;;;17.88;12.50;;;;;;;;;;5037150;28;20488;-78
2024/01/17 09:55:00;;;;;;;21.67;12.80;;;;;;;;;;5037694;28;20041;-77
2024/01/17 09:57:28;;;;;;;17.98;12.60;;;;;;;;;;5036470;28;20045;-77
2024/01/17 09:59:55;;;;;;;16.02;11.60;;;;;;;;;;5036533;28;20049;-77
2024/01/17 10:02:21;;;;;;;16.92;12.48;;;;;;;;;;5036044;28;20451;-77
2024/01/17 10:04:48;;;;;;;20.73;12.02;;;;;;;;;;5036442;28;20077;-77
2024/01/17 10:07:16;;;;;;;19.40;13.43;;;;;;;;;;5035872;28;20159;-77
2024/01/17 10:09:42;;;;;;;19.58;12.68;;;;;;;;;;5036731;28;20481;-77
2024/01/17 10:12:09;;;;;;;17.88;12.52;;;;;;;;;;5031921;28;20111;-78
2024/01/17 10:14:35;;;;;;;17.17;12.20;;;;;;;;;;5036025;28;20037;-78
2024/01/17 10:17:01;;;;;;;17.38;12.98;;;;;;;;;;5007880;28;20046;-77
2024/01/17 10:19:27;;;;;;;19.35;12.63;;;;;;;;;;5030762;28;20407;-78
2024/01/17 10:21:53;;;;;;;20.75;13.18;;;;;;;;;;5036332;28;20507;-77
2024/01/17 10:24:19;;;;;;;17.10;12.93;;;;;;;;;;5036042;28;20045;-77
2024/01/17 10:26:45;;;;;;;16.02;11.48;;;;;;;;;;5031829;28;20150;-77
2024/01/17 10:29:12;;;;;;;17.58;12.07;;;;;;;;;;5031381;28;20085;-77
2024/01/17 10:31:41;;;;;;;17.88;12.75;;;;;;;;;;5021818;28;20092;-83
2024/01/17 10:34:10;;;;;;;16.38;12.23;;;;;;;;;;5026165;28;20049;-78
2024/01/17 10:36:39;;;;;;;18.58;12.73;;;;;;;;;;5021660;28;20124;-77
2024/01/17 10:39:05;;;;;;;18.88;12.93;;;;;;;;;;5028930;28;20044;-77
2024/01/17 10:41:32;;;;;;;18.23;12.40;;;;;;;;;;5021736;28;20053;-77
2024/01/17 10:44:00;;;;;;;17.60;12.13;;;;;;;;;;5034731;28;20426;-76
2024/01/17 10:46:26;;;;;;;18.27;11.77;;;;;;;;;;5033476;28;20041;-76
2024/01/17 10:48:52;;;;;;;18.63;12.52;;;;;;;;;;5010107;28;20045;-77
2024/01/17 10:51:22;;;;;;;21.08;13.25;;;;;;;;;;5030985;28;20074;-77
2024/01/17 10:53:52;;;;;;;18.35;12.80;;;;;;;;;;5028435;28;20049;-78
2024/01/17 10:56:22;;;;;;;17.02;12.75;;;;;;;;;;5028893;28;20042;-77
2024/01/17 10:58:49;;;;;;;19.90;13.52;;;;;;;;;;5021118;28;20042;-78
2024/01/17 11:01:17;;;;;;;20.13;12.73;;;;;;;;;;5026660;28;20033;-77
2024/01/17 11:03:45;;;;;;;14.45;12.27;;;;;;;;;;5027806;28;20049;-77
2024/01/17 11:06:11;;;;;;;18.25;13.57;;;;;;;;;;5032755;28;20125;-77
2024/01/17 11:08:38;;;;;;;20.58;13.45;;;;;;;;;;5021269;28;20077;-77
2024/01/17 11:11:06;;;;;;;17.55;12.55;;;;;;;;;;5028038;28;20050;-77
2024/01/17 11:13:32;;;;;;;16.45;11.90;;;;;;;;;;5033385;28;20049;-77
2024/01/17 11:16:01;;;;;;;20.95;13.93;;;;;;;;;;5033665;28;20064;-77
2024/01/17 11:18:28;;;;;;;22.50;14.95;;;;;;;;;;5023985;28;20052;-79
2024/01/17 11:20:55;;;;;;;19.33;13.15;;;;;;;;;;5014709;28;20424;-77
2024/01/17 11:23:40;;;;;;;19.65;13.95;;;;;;;;;;5033827;28;20456;-77
2024/01/17 11:26:15;;;;;;;21.00;12.85;;;;;;;;;;5027342;28;20484;-77
2024/01/17 11:29:02;;;;;;;19.20;14.13;;;;;;;;;;5024037;28;20084;-76
2024/01/17 11:31:39;;;;;;;19.55;13.93;;;;;;;;;;5024597;28;20123;-77
2024/01/17 11:34:05;;;;;;;18.42;14.30;;;;;;;;;;5028682;28;20492;-76
2024/01/17 11:36:45;;;;;;;23.45;14.40;;;;;;;;;;5024107;28;20041;-77
2024/01/17 11:39:18;;;;;;;21.45;15.00;;;;;;;;;;5029873;28;20053;-77
2024/01/17 11:41:45;;;;;;;22.35;14.52;;;;;;;;;;5028537;28;20127;-76
2024/01/17 11:44:12;;;;;;;24.65;14.50;;;;;;;;;;5026273;28;20041;-76
2024/01/17 11:46:38;;;;;;;18.55;13.38;;;;;;;;;;5022968;28;20396;-76
2024/01/17 11:49:05;;;;;;;18.20;13.88;;;;;;;;;;5020438;28;20045;-75
2024/01/17 11:51:33;;;;;;;20.20;13.55;;;;;;;;;;5015803;28;20053;-75
2024/01/17 11:54:00;;;;;;;20.95;12.32;;;;;;;;;;5033259;28;20053;-75
2024/01/17 11:56:27;;;;;;;19.95;14.18;;;;;;;;;;5032056;28;20416;-75
2024/01/17 11:58:56;;;;;;;19.40;12.85;;;;;;;;;;4993570;28;20133;-76
2024/01/17 12:01:22;;;;;;;19.10;12.57;;;;;;;;;;5032335;28;20044;-76
2024/01/17 12:03:48;;;;;;;18.90;13.07;;;;;;;;;;5032330;28;20399;-75
2024/01/17 12:06:14;;;;;;;16.35;11.30;;;;;;;;;;5021357;28;20037;-75
2024/01/17 12:08:41;;;;;;;18.27;12.55;;;;;;;;;;5028356;28;20459;-75
2024/01/17 12:11:07;;;;;;;24.52;15.27;;;;;;;;;;5020954;28;20058;-75
2024/01/17 12:13:36;;;;;;;15.15;10.80;;;;;;;;;;5027845;28;20046;-75
2024/01/17 12:16:02;;;;;;;19.05;14.43;;;;;;;;;;5026544;28;20129;-75
2024/01/17 12:18:28;;;;;;;14.60;11.05;;;;;;;;;;5031840;28;20087;-75
2024/01/17 12:20:55;;;;;;;16.98;11.68;;;;;;;;;;5026230;28;20061;-75
2024/01/17 12:23:22;;;;;;;15.95;11.32;;;;;;;;;;5032589;28;20120;-75
2024/01/17 12:25:49;;;;;;;16.30;11.23;;;;;;;;;;5028472;28;20068;-75
2024/01/17 12:28:19;;;;;;;14.52;10.85;;;;;;;;;;5025648;28;20128;-75
2024/01/17 12:31:18;;;;;;;13.30;10.10;;;;;;;;;;5016443;28;20046;-75
2024/01/17 12:33:45;;;;;;;19.67;11.13;;;;;;;;;;5012284;28;20062;-75
2024/01/17 12:36:12;;;;;;;13.98;10.15;;;;;;;;;;5031131;28;20080;-75
2024/01/17 12:38:41;;;;;;;15.50;12.77;;;;;;;;;;5032683;28;20042;-75
2024/01/17 12:41:10;;;;;;;16.60;9.95;;;;;;;;;;5030501;28;20046;-75
2024/01/17 12:43:36;;;;;;;17.33;11.60;;;;;;;;;;5014790;28;20472;-75
2024/01/17 12:46:03;;;;;;;15.98;10.60;;;;;;;;;;5031175;28;20121;-75
2024/01/17 12:48:29;;;;;;;16.73;11.45;;;;;;;;;;5030363;28;20120;-75
2024/01/17 12:50:59;;;;;;;15.85;10.70;;;;;;;;;;5002008;28;20037;-75
2024/01/17 12:53:27;;;;;;;15.93;10.82;;;;;;;;;;5032487;28;20049;-75
2024/01/17 12:55:53;;;;;;;15.20;10.82;;;;;;;;;;5030426;28;20048;-75
2024/01/17 12:58:20;;;;;;;14.40;10.82;;;;;;;;;;5021853;28;20069;-76
2024/01/17 13:00:47;;;;;;;16.40;10.48;;;;;;;;;;4992518;28;20392;-76
2024/01/17 13:03:14;;;;;;;16.02;10.85;;;;;;;;;;5029323;28;20121;-76
2024/01/17 13:05:40;;;;;;;15.88;11.35;;;;;;;;;;5032471;28;20540;-76
2024/01/17 13:08:07;;;;;;;15.35;11.13;;;;;;;;;;5018307;28;20042;-76
2024/01/17 13:10:34;;;;;;;16.38;10.65;;;;;;;;;;5031624;28;20042;-76
2024/01/17 13:13:02;;;;;;;15.25;10.95;;;;;;;;;;5004967;28;20609;-76
2024/01/17 13:15:28;;;;;;;18.92;11.95;;;;;;;;;;5024780;28;20207;-76
2024/01/17 13:17:54;;;;;;;15.45;11.48;;;;;;;;;;5027669;28;20041;-76
2024/01/17 13:20:21;;;;;;;16.40;12.82;;;;;;;;;;5031810;28;20041;-76
2024/01/17 13:22:53;;;;;;;16.30;11.30;;;;;;;;;;5032331;28;20504;-76
2024/01/17 13:25:20;;;;;;;16.67;12.55;;;;;;;;;;5017577;28;20072;-76
2024/01/17 13:27:46;;;;;;;17.90;11.98;;;;;;;;;;5022598;28;20048;-76
2024/01/17 13:30:13;;;;;;;13.48;10.45;;;;;;;;;;5035640;28;20033;-76
2024/01/17 13:32:39;;;;;;;18.33;11.00;;;;;;;;;;5026060;28;20499;-76
2024/01/17 13:35:05;;;;;;;15.57;10.95;;;;;;;;;;5035877;28;20168;-76
2024/01/17 13:37:31;;;;;;;22.75;14.95;;;;;;;;;;5035940;28;20492;-76
2024/01/17 13:39:57;;;;;;;23.50;13.88;;;;;;;;;;5031384;28;20045;-76
2024/01/17 13:42:24;;;;;;;18.00;11.75;;;;;;;;;;5035738;28;20037;-76
2024/01/17 13:44:50;;;;;;;19.85;12.27;;;;;;;;;;5016210;28;20468;-76
2024/01/17 13:47:16;;;;;;;18.90;11.30;;;;;;;;;;5027822;28;20390;-76
2024/01/17 13:49:44;;;;;;;16.75;11.90;;;;;;;;;;5026429;28;20481;-76
2024/01/17 13:52:14;;;;;;;15.45;11.75;;;;;;;;;;5032159;28;20045;-76
2024/01/17 13:54:40;;;;;;;17.52;12.43;;;;;;;;;;5013295;28;20163;-76
2024/01/17 13:57:06;;;;;;;16.67;12.68;;;;;;;;;;5032718;28;20052;-76
2024/01/17 13:59:32;;;;;;;17.70;12.13;;;;;;;;;;5036298;28;20052;-76
2024/01/17 14:02:01;;;;;;;15.20;11.93;;;;;;;;;;5034767;28;20400;-76
2024/01/17 14:04:27;;;;;;;17.40;12.30;;;;;;;;;;5023352;28;20042;-76
2024/01/17 14:06:53;;;;;;;27.52;16.65;;;;;;;;;;5033745;28;20044;-77
2024/01/17 14:09:23;;;;;;;22.92;15.35;;;;;;;;;;5028066;28;20038;-76
2024/01/17 14:11:50;;;;;;;22.95;13.98;;;;;;;;;;5034321;28;20058;-76
2024/01/17 14:14:16;;;;;;;19.67;14.60;;;;;;;;;;5007782;28;20053;-77
2024/01/17 14:16:42;;;;;;;18.52;13.10;;;;;;;;;;5031760;28;20136;-77
2024/01/17 14:19:09;;;;;;;18.27;11.68;;;;;;;;;;5017259;28;20072;-77